sensor_id;sensor_type;location;lat;lon;timestamp;P1;durP1;ratioP1;P2;durP2;ratioP2
52456;SDS011;38369;52.840;7.082;2023-11-21T00:00:56;43.50;;;22.00;;
52456;SDS011;38369;52.840;7.082;2023-11-21T00:03:23;45.25;;;24.65;;
52456;SDS011;38369;52.840;7.082;2023-11-21T00:05:50;46.60;;;24.05;;
52456;SDS011;38369;52.840;7.082;2023-11-21T00:08:16;40.03;;;21.50;;
52456;SDS011;38369;52.840;7.082;2023-11-21T00:10:42;54.88;;;26.25;;
52456;SDS011;38369;52.840;7.082;2023-11-21T00:13:08;56.22;;;24.80;;
52456;SDS011;38369;52.840;7.082;2023-11-21T00:15:34;50.03;;;23.85;;
52456;SDS011;38369;52.840;7.082;2023-11-21T00:18:00;58.53;;;25.20;;
52456;SDS011;38369;52.840;7.082;2023-11-21T00:20:25;57.25;;;25.17;;
52456;SDS011;38369;52.840;7.082;2023-11-21T00:22:52;49.35;;;23.88;;
52456;SDS011;38369;52.840;7.082;2023-11-21T00:25:18;45.97;;;23.15;;
52456;SDS011;38369;52.840;7.082;2023-11-21T00:27:45;49.67;;;23.00;;
52456;SDS011;38369;52.840;7.082;2023-11-21T00:30:11;47.22;;;21.35;;
52456;SDS011;38369;52.840;7.082;2023-11-21T00:32:37;47.08;;;23.83;;
52456;SDS011;38369;52.840;7.082;2023-11-21T00:35:03;47.45;;;22.55;;
52456;SDS011;38369;52.840;7.082;2023-11-21T00:37:30;49.75;;;26.00;;
52456;SDS011;38369;52.840;7.082;2023-11-21T00:39:57;48.97;;;23.58;;
52456;SDS011;38369;52.840;7.082;2023-11-21T00:42:23;53.47;;;25.45;;
52456;SDS011;38369;52.840;7.082;2023-11-21T00:44:49;56.35;;;26.58;;
52456;SDS011;38369;52.840;7.082;2023-11-21T00:47:15;47.50;;;23.88;;
52456;SDS011;38369;52.840;7.082;2023-11-21T00:49:41;52.80;;;23.90;;
52456;SDS011;38369;52.840;7.082;2023-11-21T00:52:08;52.20;;;26.20;;
52456;SDS011;38369;52.840;7.082;2023-11-21T00:54:34;54.83;;;25.63;;
52456;SDS011;38369;52.840;7.082;2023-11-21T00:57:01;60.50;;;27.30;;
52456;SDS011;38369;52.840;7.082;2023-11-21T00:59:27;52.28;;;26.33;;
52456;SDS011;38369;52.840;7.082;2023-11-21T01:01:53;52.45;;;26.52;;
52456;SDS011;38369;52.840;7.082;2023-11-21T01:04:19;44.70;;;24.27;;
52456;SDS011;38369;52.840;7.082;2023-11-21T01:06:45;56.13;;;26.48;;
52456;SDS011;38369;52.840;7.082;2023-11-21T01:09:11;55.63;;;27.00;;
52456;SDS011;38369;52.840;7.082;2023-11-21T01:11:37;55.53;;;25.95;;
52456;SDS011;38369;52.840;7.082;2023-11-21T01:14:04;52.58;;;26.85;;
52456;SDS011;38369;52.840;7.082;2023-11-21T01:16:31;53.22;;;26.40;;
52456;SDS011;38369;52.840;7.082;2023-11-21T01:18:57;55.22;;;27.88;;
52456;SDS011;38369;52.840;7.082;2023-11-21T01:21:24;45.05;;;24.80;;
52456;SDS011;38369;52.840;7.082;2023-11-21T01:23:50;53.17;;;27.63;;
52456;SDS011;38369;52.840;7.082;2023-11-21T01:26:16;50.30;;;23.88;;
52456;SDS011;38369;52.840;7.082;2023-11-21T01:28:42;54.30;;;25.75;;
52456;SDS011;38369;52.840;7.082;2023-11-21T01:31:08;53.35;;;27.48;;
52456;SDS011;38369;52.840;7.082;2023-11-21T01:33:34;50.45;;;26.48;;
52456;SDS011;38369;52.840;7.082;2023-11-21T01:36:00;52.80;;;26.58;;
52456;SDS011;38369;52.840;7.082;2023-11-21T01:38:26;57.42;;;27.33;;
52456;SDS011;38369;52.840;7.082;2023-11-21T01:40:53;57.45;;;26.85;;
52456;SDS011;38369;52.840;7.082;2023-11-21T01:43:19;58.20;;;26.73;;
52456;SDS011;38369;52.840;7.082;2023-11-21T01:45:46;51.03;;;25.05;;
52456;SDS011;38369;52.840;7.082;2023-11-21T01:48:12;51.50;;;24.30;;
52456;SDS011;38369;52.840;7.082;2023-11-21T01:50:39;56.22;;;25.05;;
52456;SDS011;38369;52.840;7.082;2023-11-21T01:53:05;45.38;;;23.38;;
52456;SDS011;38369;52.840;7.082;2023-11-21T01:55:31;47.90;;;25.10;;
52456;SDS011;38369;52.840;7.082;2023-11-21T01:57:58;46.95;;;24.08;;
52456;SDS011;38369;52.840;7.082;2023-11-21T02:00:25;50.28;;;25.35;;
52456;SDS011;38369;52.840;7.082;2023-11-21T02:02:53;50.15;;;24.80;;
52456;SDS011;38369;52.840;7.082;2023-11-21T02:05:19;53.45;;;25.15;;
52456;SDS011;38369;52.840;7.082;2023-11-21T02:07:46;50.28;;;25.02;;
52456;SDS011;38369;52.840;7.082;2023-11-21T02:10:13;51.22;;;24.65;;
52456;SDS011;38369;52.840;7.082;2023-11-21T02:12:40;47.47;;;23.88;;
52456;SDS011;38369;52.840;7.082;2023-11-21T02:15:07;50.75;;;24.13;;
52456;SDS011;38369;52.840;7.082;2023-11-21T02:17:40;46.58;;;25.73;;
52456;SDS011;38369;52.840;7.082;2023-11-21T02:20:06;50.65;;;25.90;;
52456;SDS011;38369;52.840;7.082;2023-11-21T02:22:32;47.53;;;25.23;;
52456;SDS011;38369;52.840;7.082;2023-11-21T02:25:02;48.75;;;23.58;;
52456;SDS011;38369;52.840;7.082;2023-11-21T02:27:28;45.90;;;24.98;;
52456;SDS011;38369;52.840;7.082;2023-11-21T02:29:54;64.07;;;26.83;;
52456;SDS011;38369;52.840;7.082;2023-11-21T02:32:20;60.78;;;28.38;;
52456;SDS011;38369;52.840;7.082;2023-11-21T02:34:48;54.20;;;25.58;;
52456;SDS011;38369;52.840;7.082;2023-11-21T02:37:15;54.33;;;27.23;;
52456;SDS011;38369;52.840;7.082;2023-11-21T02:39:40;55.47;;;25.25;;
52456;SDS011;38369;52.840;7.082;2023-11-21T02:42:06;59.85;;;26.95;;
52456;SDS011;38369;52.840;7.082;2023-11-21T02:44:33;52.65;;;25.08;;
52456;SDS011;38369;52.840;7.082;2023-11-21T02:46:59;59.58;;;27.83;;
52456;SDS011;38369;52.840;7.082;2023-11-21T02:49:25;65.53;;;30.70;;
52456;SDS011;38369;52.840;7.082;2023-11-21T02:51:53;59.25;;;27.23;;
52456;SDS011;38369;52.840;7.082;2023-11-21T02:54:22;73.88;;;31.30;;
52456;SDS011;38369;52.840;7.082;2023-11-21T02:56:48;63.63;;;29.25;;
52456;SDS011;38369;52.840;7.082;2023-11-21T02:59:15;61.72;;;28.63;;
52456;SDS011;38369;52.840;7.082;2023-11-21T03:01:41;49.55;;;25.58;;
52456;SDS011;38369;52.840;7.082;2023-11-21T03:04:07;57.70;;;27.33;;
52456;SDS011;38369;52.840;7.082;2023-11-21T03:06:33;55.45;;;28.10;;
52456;SDS011;38369;52.840;7.082;2023-11-21T03:08:59;50.65;;;25.05;;
52456;SDS011;38369;52.840;7.082;2023-11-21T03:11:25;54.92;;;25.88;;
52456;SDS011;38369;52.840;7.082;2023-11-21T03:13:51;56.65;;;26.33;;
52456;SDS011;38369;52.840;7.082;2023-11-21T03:16:18;60.65;;;29.58;;
52456;SDS011;38369;52.840;7.082;2023-11-21T03:18:44;57.38;;;28.73;;
52456;SDS011;38369;52.840;7.082;2023-11-21T03:21:10;62.22;;;28.52;;
52456;SDS011;38369;52.840;7.082;2023-11-21T03:23:36;65.60;;;28.67;;
52456;SDS011;38369;52.840;7.082;2023-11-21T03:26:02;66.05;;;30.08;;
52456;SDS011;38369;52.840;7.082;2023-11-21T03:28:28;55.42;;;26.33;;
52456;SDS011;38369;52.840;7.082;2023-11-21T03:30:55;51.55;;;26.73;;
52456;SDS011;38369;52.840;7.082;2023-11-21T03:33:21;68.50;;;29.42;;
52456;SDS011;38369;52.840;7.082;2023-11-21T03:35:47;66.65;;;29.73;;
52456;SDS011;38369;52.840;7.082;2023-11-21T03:38:14;63.22;;;29.27;;
52456;SDS011;38369;52.840;7.082;2023-11-21T03:40:41;56.90;;;27.33;;
52456;SDS011;38369;52.840;7.082;2023-11-21T03:43:07;70.97;;;30.33;;
52456;SDS011;38369;52.840;7.082;2023-11-21T03:45:33;61.47;;;30.00;;
52456;SDS011;38369;52.840;7.082;2023-11-21T03:47:59;66.60;;;27.70;;
52456;SDS011;38369;52.840;7.082;2023-11-21T03:50:27;56.45;;;29.10;;
52456;SDS011;38369;52.840;7.082;2023-11-21T03:52:53;62.38;;;28.83;;
52456;SDS011;38369;52.840;7.082;2023-11-21T03:55:19;58.85;;;28.38;;
52456;SDS011;38369;52.840;7.082;2023-11-21T03:57:45;63.08;;;29.38;;
52456;SDS011;38369;52.840;7.082;2023-11-21T04:00:11;75.40;;;30.92;;
52456;SDS011;38369;52.840;7.082;2023-11-21T04:02:37;77.85;;;29.85;;
52456;SDS011;38369;52.840;7.082;2023-11-21T04:05:04;74.13;;;32.35;;
52456;SDS011;38369;52.840;7.082;2023-11-21T04:07:32;67.68;;;30.60;;
52456;SDS011;38369;52.840;7.082;2023-11-21T04:09:58;61.90;;;28.48;;
52456;SDS011;38369;52.840;7.082;2023-11-21T04:12:24;65.97;;;30.65;;
52456;SDS011;38369;52.840;7.082;2023-11-21T04:14:50;72.28;;;29.90;;
52456;SDS011;38369;52.840;7.082;2023-11-21T04:17:18;62.28;;;28.75;;
52456;SDS011;38369;52.840;7.082;2023-11-21T04:19:44;69.55;;;30.40;;
52456;SDS011;38369;52.840;7.082;2023-11-21T04:22:11;83.90;;;30.65;;
52456;SDS011;38369;52.840;7.082;2023-11-21T04:24:37;71.28;;;28.95;;
52456;SDS011;38369;52.840;7.082;2023-11-21T04:27:03;65.75;;;29.42;;
52456;SDS011;38369;52.840;7.082;2023-11-21T04:29:29;58.88;;;28.98;;
52456;SDS011;38369;52.840;7.082;2023-11-21T04:31:55;69.43;;;28.08;;
52456;SDS011;38369;52.840;7.082;2023-11-21T04:34:21;70.22;;;27.98;;
52456;SDS011;38369;52.840;7.082;2023-11-21T04:36:47;57.33;;;26.77;;
52456;SDS011;38369;52.840;7.082;2023-11-21T04:39:13;64.25;;;28.95;;
52456;SDS011;38369;52.840;7.082;2023-11-21T04:41:39;60.55;;;28.15;;
52456;SDS011;38369;52.840;7.082;2023-11-21T04:44:05;66.75;;;28.27;;
52456;SDS011;38369;52.840;7.082;2023-11-21T04:46:32;56.38;;;28.40;;
52456;SDS011;38369;52.840;7.082;2023-11-21T04:48:58;72.40;;;29.80;;
52456;SDS011;38369;52.840;7.082;2023-11-21T04:51:24;67.22;;;29.92;;
52456;SDS011;38369;52.840;7.082;2023-11-21T04:53:50;65.93;;;30.48;;
52456;SDS011;38369;52.840;7.082;2023-11-21T04:56:16;70.50;;;30.25;;
52456;SDS011;38369;52.840;7.082;2023-11-21T04:58:42;66.72;;;29.15;;
52456;SDS011;38369;52.840;7.082;2023-11-21T05:01:08;55.53;;;27.45;;
52456;SDS011;38369;52.840;7.082;2023-11-21T05:03:34;64.05;;;28.55;;
52456;SDS011;38369;52.840;7.082;2023-11-21T05:06:00;61.42;;;28.40;;
52456;SDS011;38369;52.840;7.082;2023-11-21T05:08:27;67.00;;;29.30;;
52456;SDS011;38369;52.840;7.082;2023-11-21T05:10:53;72.05;;;29.52;;
52456;SDS011;38369;52.840;7.082;2023-11-21T05:13:19;64.75;;;28.25;;
52456;SDS011;38369;52.840;7.082;2023-11-21T05:15:45;56.58;;;29.80;;
52456;SDS011;38369;52.840;7.082;2023-11-21T05:18:11;57.63;;;27.25;;
52456;SDS011;38369;52.840;7.082;2023-11-21T05:20:41;149.52;;;41.05;;
52456;SDS011;38369;52.840;7.082;2023-11-21T05:23:07;59.85;;;28.27;;
52456;SDS011;38369;52.840;7.082;2023-11-21T05:25:33;76.70;;;32.15;;
52456;SDS011;38369;52.840;7.082;2023-11-21T05:28:00;69.88;;;30.55;;
52456;SDS011;38369;52.840;7.082;2023-11-21T05:30:27;72.88;;;32.13;;
52456;SDS011;38369;52.840;7.082;2023-11-21T05:32:53;58.65;;;29.08;;
52456;SDS011;38369;52.840;7.082;2023-11-21T05:35:19;63.67;;;29.23;;
52456;SDS011;38369;52.840;7.082;2023-11-21T05:37:46;79.88;;;33.05;;
52456;SDS011;38369;52.840;7.082;2023-11-21T05:40:12;61.25;;;28.77;;
52456;SDS011;38369;52.840;7.082;2023-11-21T05:42:39;73.63;;;29.98;;
52456;SDS011;38369;52.840;7.082;2023-11-21T05:45:06;68.28;;;29.67;;
52456;SDS011;38369;52.840;7.082;2023-11-21T05:47:45;68.75;;;30.65;;
52456;SDS011;38369;52.840;7.082;2023-11-21T05:50:13;84.28;;;34.00;;
52456;SDS011;38369;52.840;7.082;2023-11-21T05:52:45;69.57;;;31.63;;
52456;SDS011;38369;52.840;7.082;2023-11-21T05:55:11;84.65;;;33.20;;
52456;SDS011;38369;52.840;7.082;2023-11-21T05:57:38;71.10;;;31.08;;
52456;SDS011;38369;52.840;7.082;2023-11-21T06:02:40;63.30;;;30.08;;
52456;SDS011;38369;52.840;7.082;2023-11-21T06:05:06;64.45;;;32.90;;
52456;SDS011;38369;52.840;7.082;2023-11-21T06:07:33;67.43;;;31.13;;
52456;SDS011;38369;52.840;7.082;2023-11-21T06:10:00;68.60;;;33.30;;
52456;SDS011;38369;52.840;7.082;2023-11-21T06:12:27;76.03;;;32.65;;
52456;SDS011;38369;52.840;7.082;2023-11-21T06:14:54;81.53;;;34.17;;
52456;SDS011;38369;52.840;7.082;2023-11-21T06:17:20;228.88;;;49.97;;
52456;SDS011;38369;52.840;7.082;2023-11-21T06:19:47;76.70;;;34.03;;
52456;SDS011;38369;52.840;7.082;2023-11-21T06:22:13;69.18;;;31.33;;
52456;SDS011;38369;52.840;7.082;2023-11-21T06:24:39;61.50;;;32.60;;
52456;SDS011;38369;52.840;7.082;2023-11-21T06:27:07;68.20;;;31.63;;
52456;SDS011;38369;52.840;7.082;2023-11-21T06:29:33;61.95;;;32.28;;
52456;SDS011;38369;52.840;7.082;2023-11-21T06:31:59;64.25;;;31.10;;
52456;SDS011;38369;52.840;7.082;2023-11-21T06:34:25;61.35;;;29.52;;
52456;SDS011;38369;52.840;7.082;2023-11-21T06:36:52;62.72;;;30.75;;
52456;SDS011;38369;52.840;7.082;2023-11-21T06:39:18;58.20;;;31.45;;
52456;SDS011;38369;52.840;7.082;2023-11-21T06:41:47;64.05;;;31.30;;
52456;SDS011;38369;52.840;7.082;2023-11-21T06:44:13;82.80;;;34.10;;
52456;SDS011;38369;52.840;7.082;2023-11-21T06:46:39;79.22;;;33.60;;
52456;SDS011;38369;52.840;7.082;2023-11-21T06:49:07;66.18;;;30.27;;
52456;SDS011;38369;52.840;7.082;2023-11-21T06:51:33;74.07;;;32.22;;
52456;SDS011;38369;52.840;7.082;2023-11-21T06:53:59;60.25;;;29.90;;
52456;SDS011;38369;52.840;7.082;2023-11-21T06:56:25;55.72;;;29.00;;
52456;SDS011;38369;52.840;7.082;2023-11-21T06:58:51;56.15;;;28.08;;
52456;SDS011;38369;52.840;7.082;2023-11-21T07:01:19;55.55;;;26.08;;
52456;SDS011;38369;52.840;7.082;2023-11-21T07:03:45;57.67;;;26.40;;
52456;SDS011;38369;52.840;7.082;2023-11-21T07:06:11;64.53;;;27.67;;
52456;SDS011;38369;52.840;7.082;2023-11-21T07:08:37;81.57;;;31.27;;
52456;SDS011;38369;52.840;7.082;2023-11-21T07:11:03;52.95;;;25.60;;
52456;SDS011;38369;52.840;7.082;2023-11-21T07:13:30;53.47;;;25.45;;
52456;SDS011;38369;52.840;7.082;2023-11-21T07:15:57;65.88;;;27.67;;
52456;SDS011;38369;52.840;7.082;2023-11-21T07:18:23;61.53;;;26.80;;
52456;SDS011;38369;52.840;7.082;2023-11-21T07:20:49;67.95;;;28.08;;
52456;SDS011;38369;52.840;7.082;2023-11-21T07:23:16;60.75;;;28.05;;
52456;SDS011;38369;52.840;7.082;2023-11-21T07:25:42;50.90;;;25.08;;
52456;SDS011;38369;52.840;7.082;2023-11-21T07:28:09;76.97;;;29.00;;
52456;SDS011;38369;52.840;7.082;2023-11-21T07:30:35;60.58;;;27.45;;
52456;SDS011;38369;52.840;7.082;2023-11-21T07:33:01;70.70;;;27.85;;
52456;SDS011;38369;52.840;7.082;2023-11-21T07:35:27;74.55;;;29.92;;
52456;SDS011;38369;52.840;7.082;2023-11-21T07:37:53;65.90;;;28.88;;
52456;SDS011;38369;52.840;7.082;2023-11-21T07:40:19;58.30;;;27.50;;
52456;SDS011;38369;52.840;7.082;2023-11-21T07:42:45;70.35;;;29.55;;
52456;SDS011;38369;52.840;7.082;2023-11-21T07:45:11;55.72;;;24.42;;
52456;SDS011;38369;52.840;7.082;2023-11-21T07:47:37;66.82;;;26.90;;
52456;SDS011;38369;52.840;7.082;2023-11-21T07:50:04;67.65;;;28.50;;
52456;SDS011;38369;52.840;7.082;2023-11-21T07:52:30;56.33;;;24.35;;
52456;SDS011;38369;52.840;7.082;2023-11-21T07:54:56;55.90;;;24.25;;
52456;SDS011;38369;52.840;7.082;2023-11-21T07:57:22;54.13;;;23.88;;
52456;SDS011;38369;52.840;7.082;2023-11-21T07:59:48;58.92;;;22.90;;
52456;SDS011;38369;52.840;7.082;2023-11-21T08:02:14;58.28;;;25.70;;
52456;SDS011;38369;52.840;7.082;2023-11-21T08:04:42;52.15;;;22.05;;
52456;SDS011;38369;52.840;7.082;2023-11-21T08:07:09;52.13;;;22.50;;
52456;SDS011;38369;52.840;7.082;2023-11-21T08:09:36;49.22;;;21.63;;
52456;SDS011;38369;52.840;7.082;2023-11-21T08:12:02;53.17;;;22.70;;
52456;SDS011;38369;52.840;7.082;2023-11-21T08:14:28;55.55;;;22.02;;
52456;SDS011;38369;52.840;7.082;2023-11-21T08:16:54;69.60;;;25.45;;
52456;SDS011;38369;52.840;7.082;2023-11-21T08:19:22;73.32;;;27.00;;
52456;SDS011;38369;52.840;7.082;2023-11-21T08:21:49;63.00;;;22.73;;
52456;SDS011;38369;52.840;7.082;2023-11-21T08:24:15;70.30;;;24.48;;
52456;SDS011;38369;52.840;7.082;2023-11-21T08:26:41;68.97;;;25.63;;
52456;SDS011;38369;52.840;7.082;2023-11-21T08:29:08;65.32;;;24.40;;
52456;SDS011;38369;52.840;7.082;2023-11-21T08:31:34;75.60;;;25.95;;
52456;SDS011;38369;52.840;7.082;2023-11-21T08:34:00;69.63;;;27.17;;
52456;SDS011;38369;52.840;7.082;2023-11-21T08:36:28;67.25;;;27.38;;
52456;SDS011;38369;52.840;7.082;2023-11-21T08:38:54;64.13;;;26.90;;
52456;SDS011;38369;52.840;7.082;2023-11-21T08:41:20;72.68;;;29.10;;
52456;SDS011;38369;52.840;7.082;2023-11-21T08:43:52;71.80;;;26.38;;
52456;SDS011;38369;52.840;7.082;2023-11-21T08:46:20;67.40;;;26.70;;
52456;SDS011;38369;52.840;7.082;2023-11-21T08:48:46;80.97;;;31.23;;
52456;SDS011;38369;52.840;7.082;2023-11-21T08:51:12;74.75;;;30.42;;
52456;SDS011;38369;52.840;7.082;2023-11-21T08:53:39;69.63;;;29.55;;
52456;SDS011;38369;52.840;7.082;2023-11-21T08:56:05;68.70;;;30.85;;
52456;SDS011;38369;52.840;7.082;2023-11-21T08:58:31;62.08;;;29.08;;
52456;SDS011;38369;52.840;7.082;2023-11-21T09:00:57;64.72;;;28.17;;
52456;SDS011;38369;52.840;7.082;2023-11-21T09:03:23;65.95;;;29.23;;
52456;SDS011;38369;52.840;7.082;2023-11-21T09:05:50;61.22;;;28.20;;
52456;SDS011;38369;52.840;7.082;2023-11-21T09:08:16;51.45;;;27.05;;
52456;SDS011;38369;52.840;7.082;2023-11-21T09:10:42;57.50;;;27.45;;
52456;SDS011;38369;52.840;7.082;2023-11-21T09:13:12;57.73;;;27.63;;
52456;SDS011;38369;52.840;7.082;2023-11-21T09:15:38;55.85;;;26.60;;
52456;SDS011;38369;52.840;7.082;2023-11-21T09:18:04;53.88;;;25.52;;
52456;SDS011;38369;52.840;7.082;2023-11-21T09:20:30;49.63;;;23.80;;
52456;SDS011;38369;52.840;7.082;2023-11-21T09:22:56;39.53;;;22.08;;
52456;SDS011;38369;52.840;7.082;2023-11-21T09:25:22;43.50;;;21.90;;
52456;SDS011;38369;52.840;7.082;2023-11-21T09:27:48;43.72;;;22.58;;
52456;SDS011;38369;52.840;7.082;2023-11-21T09:30:14;45.95;;;21.52;;
52456;SDS011;38369;52.840;7.082;2023-11-21T09:32:41;39.28;;;21.83;;
52456;SDS011;38369;52.840;7.082;2023-11-21T09:35:10;38.00;;;20.90;;
52456;SDS011;38369;52.840;7.082;2023-11-21T09:37:36;38.22;;;20.90;;
52456;SDS011;38369;52.840;7.082;2023-11-21T09:40:03;39.58;;;22.65;;
52456;SDS011;38369;52.840;7.082;2023-11-21T09:42:31;36.70;;;20.17;;
52456;SDS011;38369;52.840;7.082;2023-11-21T09:47:35;35.20;;;19.75;;
52456;SDS011;38369;52.840;7.082;2023-11-21T09:50:02;33.20;;;18.45;;
52456;SDS011;38369;52.840;7.082;2023-11-21T09:52:28;28.95;;;18.85;;
52456;SDS011;38369;52.840;7.082;2023-11-21T09:54:55;26.60;;;16.48;;
52456;SDS011;38369;52.840;7.082;2023-11-21T09:57:25;29.02;;;18.95;;
52456;SDS011;38369;52.840;7.082;2023-11-21T09:59:53;31.38;;;18.15;;
52456;SDS011;38369;52.840;7.082;2023-11-21T10:02:25;28.02;;;18.80;;
52456;SDS011;38369;52.840;7.082;2023-11-21T10:04:53;26.73;;;18.20;;
52456;SDS011;38369;52.840;7.082;2023-11-21T10:07:20;20.42;;;15.32;;
52456;SDS011;38369;52.840;7.082;2023-11-21T10:09:46;20.92;;;15.48;;
52456;SDS011;38369;52.840;7.082;2023-11-21T10:12:14;14.52;;;11.05;;
52456;SDS011;38369;52.840;7.082;2023-11-21T10:14:41;15.07;;;11.02;;
52456;SDS011;38369;52.840;7.082;2023-11-21T10:17:10;18.05;;;13.15;;
52456;SDS011;38369;52.840;7.082;2023-11-21T10:19:37;15.65;;;11.88;;
52456;SDS011;38369;52.840;7.082;2023-11-21T10:22:04;15.70;;;10.68;;
52456;SDS011;38369;52.840;7.082;2023-11-21T10:24:32;12.20;;;9.23;;
52456;SDS011;38369;52.840;7.082;2023-11-21T10:26:58;15.70;;;10.38;;
52456;SDS011;38369;52.840;7.082;2023-11-21T10:29:28;25.77;;;22.58;;
52456;SDS011;38369;52.840;7.082;2023-11-21T10:31:55;13.77;;;11.13;;
52456;SDS011;38369;52.840;7.082;2023-11-21T10:34:23;13.50;;;9.40;;
52456;SDS011;38369;52.840;7.082;2023-11-21T10:36:49;12.38;;;10.18;;
52456;SDS011;38369;52.840;7.082;2023-11-21T10:39:19;11.80;;;8.80;;
52456;SDS011;38369;52.840;7.082;2023-11-21T10:41:49;14.18;;;10.00;;
52456;SDS011;38369;52.840;7.082;2023-11-21T10:44:19;16.88;;;10.48;;
52456;SDS011;38369;52.840;7.082;2023-11-21T10:46:58;14.93;;;9.68;;
52456;SDS011;38369;52.840;7.082;2023-11-21T10:49:26;12.20;;;9.63;;
52456;SDS011;38369;52.840;7.082;2023-11-21T10:51:55;14.50;;;10.07;;
52456;SDS011;38369;52.840;7.082;2023-11-21T10:54:25;17.38;;;14.48;;
52456;SDS011;38369;52.840;7.082;2023-11-21T10:56:58;12.32;;;10.02;;
52456;SDS011;38369;52.840;7.082;2023-11-21T10:59:26;12.82;;;10.52;;
52456;SDS011;38369;52.840;7.082;2023-11-21T11:01:54;14.63;;;9.93;;
52456;SDS011;38369;52.840;7.082;2023-11-21T11:04:20;13.13;;;9.43;;
52456;SDS011;38369;52.840;7.082;2023-11-21T11:07:08;13.68;;;9.73;;
52456;SDS011;38369;52.840;7.082;2023-11-21T11:09:34;11.60;;;9.52;;
52456;SDS011;38369;52.840;7.082;2023-11-21T11:12:03;11.70;;;9.02;;
52456;SDS011;38369;52.840;7.082;2023-11-21T11:14:29;12.73;;;9.00;;
52456;SDS011;38369;52.840;7.082;2023-11-21T11:16:57;12.52;;;9.30;;
52456;SDS011;38369;52.840;7.082;2023-11-21T11:19:25;11.90;;;8.85;;
52456;SDS011;38369;52.840;7.082;2023-11-21T11:22:15;12.23;;;9.02;;
52456;SDS011;38369;52.840;7.082;2023-11-21T11:24:59;13.00;;;9.63;;
52456;SDS011;38369;52.840;7.082;2023-11-21T11:27:34;11.40;;;8.63;;
52456;SDS011;38369;52.840;7.082;2023-11-21T11:30:07;10.88;;;7.95;;
52456;SDS011;38369;52.840;7.082;2023-11-21T11:32:58;11.23;;;9.48;;
52456;SDS011;38369;52.840;7.082;2023-11-21T11:35:31;13.13;;;9.00;;
52456;SDS011;38369;52.840;7.082;2023-11-21T11:37:59;15.82;;;9.85;;
52456;SDS011;38369;52.840;7.082;2023-11-21T11:40:41;16.05;;;9.90;;
52456;SDS011;38369;52.840;7.082;2023-11-21T11:43:07;29.55;;;17.42;;
52456;SDS011;38369;52.840;7.082;2023-11-21T11:45:33;26.60;;;16.30;;
52456;SDS011;38369;52.840;7.082;2023-11-21T11:48:01;28.60;;;16.02;;
52456;SDS011;38369;52.840;7.082;2023-11-21T11:50:27;40.38;;;22.63;;
52456;SDS011;38369;52.840;7.082;2023-11-21T11:52:53;13.38;;;10.07;;
52456;SDS011;38369;52.840;7.082;2023-11-21T11:55:23;13.38;;;9.68;;
52456;SDS011;38369;52.840;7.082;2023-11-21T12:00:16;12.63;;;8.75;;
52456;SDS011;38369;52.840;7.082;2023-11-21T12:02:50;14.88;;;9.65;;
52456;SDS011;38369;52.840;7.082;2023-11-21T12:05:20;10.60;;;8.35;;
52456;SDS011;38369;52.840;7.082;2023-11-21T12:07:48;13.70;;;9.57;;
52456;SDS011;38369;52.840;7.082;2023-11-21T12:10:15;11.50;;;9.13;;
52456;SDS011;38369;52.840;7.082;2023-11-21T12:12:49;12.35;;;9.07;;
52456;SDS011;38369;52.840;7.082;2023-11-21T12:15:17;14.68;;;9.75;;
52456;SDS011;38369;52.840;7.082;2023-11-21T12:17:44;12.77;;;9.50;;
52456;SDS011;38369;52.840;7.082;2023-11-21T12:20:10;13.63;;;9.23;;
52456;SDS011;38369;52.840;7.082;2023-11-21T12:25:09;11.95;;;8.48;;
52456;SDS011;38369;52.840;7.082;2023-11-21T12:27:35;13.20;;;8.90;;
52456;SDS011;38369;52.840;7.082;2023-11-21T12:30:01;12.45;;;9.57;;
52456;SDS011;38369;52.840;7.082;2023-11-21T12:32:27;11.43;;;8.30;;
52456;SDS011;38369;52.840;7.082;2023-11-21T12:34:53;10.80;;;8.65;;
52456;SDS011;38369;52.840;7.082;2023-11-21T12:37:19;12.40;;;9.35;;
52456;SDS011;38369;52.840;7.082;2023-11-21T12:39:45;12.60;;;9.30;;
52456;SDS011;38369;52.840;7.082;2023-11-21T12:42:11;11.40;;;8.85;;
52456;SDS011;38369;52.840;7.082;2023-11-21T12:44:38;14.95;;;10.35;;
52456;SDS011;38369;52.840;7.082;2023-11-21T12:47:06;14.48;;;9.43;;
52456;SDS011;38369;52.840;7.082;2023-11-21T12:49:34;11.88;;;8.98;;
52456;SDS011;38369;52.840;7.082;2023-11-21T12:52:00;13.77;;;9.18;;
52456;SDS011;38369;52.840;7.082;2023-11-21T12:54:28;11.68;;;8.90;;
52456;SDS011;38369;52.840;7.082;2023-11-21T12:56:58;12.93;;;8.70;;
52456;SDS011;38369;52.840;7.082;2023-11-21T12:59:25;11.23;;;8.90;;
52456;SDS011;38369;52.840;7.082;2023-11-21T13:01:51;10.63;;;7.85;;
52456;SDS011;38369;52.840;7.082;2023-11-21T13:04:29;12.45;;;9.23;;
52456;SDS011;38369;52.840;7.082;2023-11-21T13:06:55;13.15;;;9.05;;
52456;SDS011;38369;52.840;7.082;2023-11-21T13:09:29;14.88;;;9.38;;
52456;SDS011;38369;52.840;7.082;2023-11-21T13:12:01;12.57;;;8.75;;
52456;SDS011;38369;52.840;7.082;2023-11-21T13:14:29;13.98;;;9.25;;
52456;SDS011;38369;52.840;7.082;2023-11-21T13:16:57;10.15;;;8.45;;
52456;SDS011;38369;52.840;7.082;2023-11-21T13:19:22;13.48;;;9.18;;
52456;SDS011;38369;52.840;7.082;2023-11-21T13:21:49;12.00;;;8.95;;
52456;SDS011;38369;52.840;7.082;2023-11-21T13:24:15;11.45;;;9.38;;
52456;SDS011;38369;52.840;7.082;2023-11-21T13:26:43;13.07;;;9.63;;
52456;SDS011;38369;52.840;7.082;2023-11-21T13:29:10;13.70;;;10.05;;
52456;SDS011;38369;52.840;7.082;2023-11-21T13:31:38;14.90;;;10.68;;
52456;SDS011;38369;52.840;7.082;2023-11-21T13:34:04;14.55;;;10.02;;
52456;SDS011;38369;52.840;7.082;2023-11-21T13:36:30;11.10;;;8.65;;
52456;SDS011;38369;52.840;7.082;2023-11-21T13:38:58;13.07;;;9.73;;
52456;SDS011;38369;52.840;7.082;2023-11-21T13:41:24;12.70;;;9.60;;
52456;SDS011;38369;52.840;7.082;2023-11-21T13:43:55;15.43;;;10.25;;
52456;SDS011;38369;52.840;7.082;2023-11-21T13:46:40;15.85;;;10.23;;
52456;SDS011;38369;52.840;7.082;2023-11-21T13:49:06;15.45;;;10.18;;
52456;SDS011;38369;52.840;7.082;2023-11-21T13:51:35;11.45;;;9.02;;
52456;SDS011;38369;52.840;7.082;2023-11-21T13:54:09;12.98;;;9.70;;
52456;SDS011;38369;52.840;7.082;2023-11-21T13:56:36;11.95;;;9.57;;
52456;SDS011;38369;52.840;7.082;2023-11-21T13:59:02;12.05;;;8.90;;
52456;SDS011;38369;52.840;7.082;2023-11-21T14:01:39;12.60;;;9.50;;
52456;SDS011;38369;52.840;7.082;2023-11-21T14:04:22;13.13;;;8.75;;
52456;SDS011;38369;52.840;7.082;2023-11-21T14:06:57;13.18;;;9.13;;
52456;SDS011;38369;52.840;7.082;2023-11-21T14:09:25;12.55;;;9.27;;
52456;SDS011;38369;52.840;7.082;2023-11-21T14:11:57;12.30;;;9.25;;
52456;SDS011;38369;52.840;7.082;2023-11-21T14:14:26;15.32;;;9.32;;
52456;SDS011;38369;52.840;7.082;2023-11-21T14:16:53;12.68;;;9.02;;
52456;SDS011;38369;52.840;7.082;2023-11-21T14:19:21;13.38;;;9.10;;
52456;SDS011;38369;52.840;7.082;2023-11-21T14:21:51;12.90;;;8.85;;
52456;SDS011;38369;52.840;7.082;2023-11-21T14:24:18;13.73;;;9.93;;
52456;SDS011;38369;52.840;7.082;2023-11-21T14:26:44;14.90;;;9.93;;
52456;SDS011;38369;52.840;7.082;2023-11-21T14:29:11;14.25;;;10.00;;
52456;SDS011;38369;52.840;7.082;2023-11-21T14:31:39;12.02;;;9.70;;
52456;SDS011;38369;52.840;7.082;2023-11-21T14:34:06;14.25;;;10.45;;